createdAt,value
2019-03-10T00:00:47.765Z,4.96
2019-03-10T00:03:21.760Z,5.00
2019-03-10T00:05:55.990Z,5.04
2019-03-10T00:08:31.870Z,4.98
2019-03-10T00:11:07.226Z,5.12
2019-03-10T00:13:41.007Z,5.15
2019-03-10T00:16:17.251Z,5.26
2019-03-10T00:18:50.895Z,5.27
2019-03-10T00:21:28.352Z,5.31
2019-03-10T00:24:02.120Z,5.39
2019-03-10T00:26:36.472Z,5.35
2019-03-10T00:29:10.491Z,5.33
2019-03-10T00:31:44.275Z,5.51
2019-03-10T00:34:17.895Z,5.35
2019-03-10T00:36:53.957Z,5.39
2019-03-10T00:40:47.381Z,5.40
2019-03-10T00:44:32.626Z,5.41
2019-03-10T00:48:04.652Z,5.54
2019-03-10T00:51:38.835Z,5.54
2019-03-10T00:54:14.280Z,5.49
2019-03-10T00:56:47.955Z,5.52
2019-03-10T00:59:21.795Z,5.61
2019-03-10T01:01:55.856Z,5.64
2019-03-10T01:04:29.975Z,5.65
2019-03-10T01:07:04.306Z,5.71
2019-03-10T01:09:38.077Z,5.59
2019-03-10T01:12:12.126Z,5.58
2019-03-10T01:14:46.192Z,5.65
2019-03-10T01:17:21.484Z,5.65
2019-03-10T01:19:55.724Z,5.63
2019-03-10T01:22:30.038Z,5.67
2019-03-10T01:25:03.763Z,5.64
2019-03-10T01:27:39.422Z,5.66
2019-03-10T01:30:19.251Z,5.65
2019-03-10T01:33:35.066Z,5.63
2019-03-10T01:36:15.957Z,5.60
2019-03-10T01:38:49.927Z,5.73
2019-03-10T01:41:23.612Z,5.74
2019-03-10T01:43:58.525Z,5.64
2019-03-10T01:46:32.607Z,5.68
2019-03-10T01:49:06.495Z,5.73
2019-03-10T01:51:40.284Z,5.73
2019-03-10T01:54:14.426Z,5.79
2019-03-10T01:56:50.753Z,5.71
2019-03-10T01:59:25.878Z,5.83
2019-03-10T02:01:59.663Z,5.84
2019-03-10T02:04:33.425Z,5.77
2019-03-10T02:07:08.326Z,5.74
2019-03-10T02:09:42.389Z,5.83
2019-03-10T02:12:17.371Z,5.85
2019-03-10T02:14:52.342Z,5.84
2019-03-10T02:17:27.151Z,5.84
2019-03-10T02:20:00.961Z,5.85
2019-03-10T02:22:35.098Z,5.86
2019-03-10T02:25:11.850Z,5.87
2019-03-10T02:27:46.783Z,5.76
2019-03-10T02:30:21.209Z,5.76
2019-03-10T02:32:54.915Z,5.72
2019-03-10T02:35:28.554Z,5.70
2019-03-10T02:38:02.926Z,5.69
2019-03-10T02:40:36.540Z,5.59
2019-03-10T02:43:11.693Z,5.60
2019-03-10T02:45:47.137Z,5.58
2019-03-10T02:48:20.972Z,5.63
2019-03-10T02:50:55.765Z,5.63
2019-03-10T02:53:29.587Z,5.57
2019-03-10T02:56:03.883Z,5.71
2019-03-10T02:58:38.515Z,5.71
2019-03-10T03:01:12.550Z,5.78
2019-03-10T03:03:46.246Z,5.76
2019-03-10T03:06:20.659Z,5.76
2019-03-10T03:08:54.792Z,5.75
2019-03-10T03:11:28.507Z,5.82
2019-03-10T03:14:02.220Z,5.74
2019-03-10T03:16:37.075Z,5.77
2019-03-10T03:19:10.883Z,5.83
2019-03-10T03:21:45.758Z,5.71
2019-03-10T03:24:19.567Z,5.71
2019-03-10T03:26:54.403Z,5.77
2019-03-10T03:29:30.270Z,5.67
2019-03-10T03:32:05.093Z,5.71
2019-03-10T03:34:39.042Z,5.71
2019-03-10T03:37:17.721Z,5.67
2019-03-10T03:39:54.162Z,5.70
2019-03-10T03:42:28.355Z,5.73
2019-03-10T03:45:03.337Z,5.74
2019-03-10T03:47:40.600Z,5.69
2019-03-10T03:50:14.405Z,5.64
2019-03-10T03:52:48.284Z,5.72
2019-03-10T03:55:22.101Z,5.76
2019-03-10T03:57:56.060Z,5.72
2019-03-10T04:00:29.868Z,5.74
2019-03-10T04:03:03.677Z,5.75
2019-03-10T04:05:37.377Z,5.79
2019-03-10T04:08:11.182Z,5.80
2019-03-10T04:10:46.630Z,5.80
2019-03-10T04:13:20.546Z,5.77
2019-03-10T04:15:55.283Z,5.83
2019-03-10T04:18:29.092Z,5.69
2019-03-10T04:21:02.785Z,5.74
2019-03-10T04:23:36.419Z,5.79
2019-03-10T04:26:10.497Z,5.84
2019-03-10T04:28:49.418Z,5.87
2019-03-10T04:31:25.480Z,5.81
2019-03-10T04:33:59.302Z,5.80
2019-03-10T04:36:34.169Z,5.82
2019-03-10T04:39:09.051Z,5.82
2019-03-10T04:41:43.058Z,5.75
2019-03-10T04:44:16.985Z,5.72
2019-03-10T04:46:51.218Z,5.65
2019-03-10T04:49:24.846Z,5.63
2019-03-10T04:52:00.577Z,5.63
2019-03-10T04:54:55.949Z,5.60
2019-03-10T04:57:30.376Z,5.61
2019-03-10T05:00:04.157Z,5.61
2019-03-10T05:02:39.865Z,5.60
2019-03-10T05:05:13.514Z,5.56
2019-03-10T05:07:47.609Z,5.65
2019-03-10T05:10:21.329Z,5.66
2019-03-10T05:12:55.099Z,5.58
2019-03-10T05:15:29.869Z,5.68
2019-03-10T05:18:03.606Z,5.57
2019-03-10T05:20:37.282Z,5.71
2019-03-10T05:23:41.000Z,5.64
2019-03-10T05:26:16.404Z,5.69
2019-03-10T05:28:51.593Z,5.75
2019-03-10T05:31:27.555Z,5.73
2019-03-10T05:34:01.344Z,5.75
2019-03-10T05:36:36.198Z,5.76
2019-03-10T05:39:10.219Z,5.79
2019-03-10T05:41:43.994Z,5.65
2019-03-10T05:44:19.130Z,5.77
2019-03-10T05:46:55.830Z,5.73
2019-03-10T05:49:30.857Z,5.89
2019-03-10T05:52:07.615Z,5.84
2019-03-10T05:54:41.758Z,5.80
2019-03-10T05:57:15.507Z,5.88
2019-03-10T05:59:49.242Z,5.88
2019-03-10T06:02:24.484Z,5.92
2019-03-10T06:04:59.314Z,5.88
2019-03-10T06:07:33.022Z,5.98
2019-03-10T06:10:07.194Z,6.08
2019-03-10T06:12:42.056Z,5.98
2019-03-10T06:15:15.775Z,6.00
2019-03-10T06:17:53.378Z,6.09
2019-03-10T06:20:27.257Z,6.12
2019-03-10T06:23:01.099Z,6.08
2019-03-10T06:25:35.195Z,6.08
2019-03-10T06:28:10.109Z,6.23
2019-03-10T06:30:43.900Z,6.25
2019-03-10T06:33:18.086Z,6.28
2019-03-10T06:35:52.312Z,6.34
2019-03-10T06:38:26.274Z,6.31
2019-03-10T06:40:59.992Z,6.37
2019-03-10T06:43:34.989Z,6.37
2019-03-10T06:46:12.228Z,6.29
2019-03-10T06:48:47.553Z,6.33
2019-03-10T06:51:22.752Z,6.37
2019-03-10T06:53:56.587Z,6.44
2019-03-10T06:56:30.410Z,6.40
2019-03-10T06:59:04.067Z,6.38
2019-03-10T07:01:38.841Z,6.43
2019-03-10T07:04:13.680Z,6.35
2019-03-10T07:06:47.424Z,6.40
2019-03-10T07:09:22.317Z,6.44
2019-03-10T07:11:56.131Z,6.35
2019-03-10T07:14:30.137Z,6.53
2019-03-10T07:17:05.633Z,6.60
2019-03-10T07:19:39.502Z,6.67
2019-03-10T07:22:15.146Z,6.81
2019-03-10T07:24:51.311Z,6.91
2019-03-10T07:27:27.512Z,6.94
2019-03-10T07:30:20.204Z,7.00
2019-03-10T07:33:08.041Z,7.10
2019-03-10T07:36:05.910Z,7.03
2019-03-10T07:38:48.913Z,7.13
2019-03-10T07:41:30.388Z,7.34
2019-03-10T07:44:25.894Z,7.31
2019-03-10T07:47:06.760Z,7.29
2019-03-10T07:50:00.356Z,7.23
2019-03-10T07:52:45.384Z,7.12
2019-03-10T07:55:38.464Z,7.05
2019-03-10T07:58:42.642Z,6.95
2019-03-10T08:01:42.022Z,6.85
2019-03-10T08:04:44.996Z,6.74
2019-03-10T08:07:36.515Z,6.84
2019-03-10T08:10:27.711Z,6.85
2019-03-10T08:13:31.505Z,6.70
2019-03-10T08:16:27.234Z,6.75
2019-03-10T08:19:20.054Z,6.66
2019-03-10T08:22:09.826Z,6.75
2019-03-10T08:25:02.465Z,6.79
2019-03-10T08:28:02.989Z,6.85
2019-03-10T08:30:58.593Z,6.80
2019-03-10T08:33:52.588Z,6.84
2019-03-10T08:36:48.229Z,6.90
2019-03-10T08:39:39.774Z,6.88
2019-03-10T08:42:32.306Z,6.86
2019-03-10T08:45:26.172Z,6.98
2019-03-10T08:48:32.626Z,6.94
2019-03-10T08:51:15.028Z,7.01
2019-03-10T08:54:11.451Z,6.99
2019-03-10T08:57:06.961Z,6.89
2019-03-10T09:00:04.401Z,6.92
2019-03-10T09:02:56.952Z,6.91
2019-03-10T09:06:03.900Z,6.77
2019-03-10T09:08:54.292Z,6.84
2019-03-10T09:11:52.757Z,6.83
2019-03-10T09:14:48.362Z,6.74
2019-03-10T09:17:43.882Z,6.69
2019-03-10T09:20:42.336Z,6.56
2019-03-10T09:23:37.840Z,6.57
2019-03-10T09:26:42.450Z,6.78
2019-03-10T09:29:26.103Z,6.71
2019-03-10T09:32:27.208Z,6.70
2019-03-10T09:35:09.822Z,6.73
2019-03-10T09:38:03.691Z,6.70
2019-03-10T09:40:43.939Z,6.61
2019-03-10T09:43:24.527Z,6.64
2019-03-10T09:46:05.983Z,6.56
2019-03-10T09:48:58.577Z,6.58
2019-03-10T09:52:02.793Z,6.53
2019-03-10T09:55:00.850Z,6.56
2019-03-10T09:57:45.846Z,6.42
2019-03-10T10:00:35.010Z,6.41
2019-03-10T10:03:33.574Z,6.55
2019-03-10T10:06:33.891Z,6.40
2019-03-10T10:09:21.920Z,6.46
2019-03-10T10:12:12.731Z,6.31
2019-03-10T10:15:03.633Z,6.25
2019-03-10T10:17:59.125Z,6.26
2019-03-10T10:21:00.782Z,6.12
2019-03-10T10:23:44.389Z,6.16
2019-03-10T10:26:43.795Z,6.24
2019-03-10T10:29:48.395Z,6.19
2019-03-10T10:32:31.767Z,6.22
2019-03-10T10:35:13.815Z,6.37
2019-03-10T10:38:18.229Z,6.55
2019-03-10T10:41:07.789Z,6.56
2019-03-10T10:43:59.137Z,6.56
2019-03-10T10:47:00.054Z,6.48
2019-03-10T10:49:57.162Z,6.42
2019-03-10T10:52:58.763Z,6.55
2019-03-10T10:55:51.154Z,6.57
2019-03-10T10:58:46.853Z,6.59
2019-03-10T11:01:33.134Z,6.82
2019-03-10T11:04:31.912Z,6.44
2019-03-10T11:07:22.502Z,6.28
2019-03-10T11:10:15.138Z,6.52
2019-03-10T11:13:12.280Z,6.59
2019-03-10T11:16:00.313Z,6.68
2019-03-10T11:18:50.229Z,6.86
2019-03-10T11:21:52.565Z,6.70
2019-03-10T11:24:35.159Z,6.63
2019-03-10T11:27:34.339Z,6.64
2019-03-10T11:30:35.780Z,6.87
2019-03-10T11:33:29.868Z,6.60
2019-03-10T11:36:19.927Z,6.60
2019-03-10T11:39:11.134Z,6.19
2019-03-10T11:42:06.841Z,6.19
2019-03-10T11:44:49.244Z,6.14
2019-03-10T11:48:00.301Z,6.22
2019-03-10T11:50:55.712Z,6.45
2019-03-10T11:53:54.490Z,6.76
2019-03-10T11:56:47.524Z,6.61
2019-03-10T11:59:26.757Z,6.56
2019-03-10T12:02:18.178Z,6.51
2019-03-10T12:05:06.407Z,6.42
2019-03-10T12:07:51.372Z,6.48
2019-03-10T12:10:26.098Z,6.26
2019-03-10T12:13:01.406Z,6.22
2019-03-10T12:15:36.107Z,6.16
2019-03-10T12:18:10.257Z,5.96
2019-03-10T12:20:44.126Z,5.87
2019-03-10T12:23:20.998Z,6.03
2019-03-10T12:25:55.805Z,5.76
2019-03-10T12:28:31.654Z,5.67
2019-03-10T12:31:05.461Z,5.65
2019-03-10T12:33:39.165Z,5.91
2019-03-10T12:36:13.931Z,6.01
2019-03-10T12:38:51.559Z,5.91
2019-03-10T12:41:26.409Z,5.55
2019-03-10T12:44:01.384Z,5.36
2019-03-10T12:46:35.490Z,5.66
2019-03-10T12:49:09.405Z,5.66
2019-03-10T12:51:43.263Z,5.70
2019-03-10T12:54:16.942Z,5.41
2019-03-10T12:56:51.148Z,5.59
2019-03-10T12:59:26.682Z,5.88
2019-03-10T13:02:04.051Z,5.35
2019-03-10T13:04:37.908Z,5.29
2019-03-10T13:07:11.863Z,5.27
2019-03-10T13:09:48.061Z,4.87
2019-03-10T13:12:23.271Z,5.00
2019-03-10T13:14:59.738Z,4.76
2019-03-10T13:17:33.413Z,4.67
2019-03-10T13:20:08.558Z,4.68
2019-03-10T13:22:42.474Z,4.51
2019-03-10T13:25:16.428Z,4.61
2019-03-10T13:27:50.178Z,4.62
2019-03-10T13:30:24.775Z,4.62
2019-03-10T13:32:58.592Z,4.73
2019-03-10T13:35:34.198Z,4.67
2019-03-10T13:38:10.731Z,4.43
2019-03-10T13:40:44.814Z,4.57
2019-03-10T13:43:21.145Z,4.61
2019-03-10T13:45:55.323Z,4.66
2019-03-10T13:48:30.467Z,4.70
2019-03-10T13:51:04.410Z,4.63
2019-03-10T13:53:39.833Z,4.85
2019-03-10T13:56:14.229Z,4.91
2019-03-10T13:58:49.936Z,4.69
2019-03-10T14:01:26.023Z,4.57
2019-03-10T14:04:00.921Z,4.41
2019-03-10T14:06:34.834Z,4.29
2019-03-10T14:09:10.647Z,4.29
2019-03-10T14:11:44.783Z,4.19
2019-03-10T14:14:21.165Z,4.04
2019-03-10T14:16:54.806Z,4.16
2019-03-10T14:19:28.493Z,4.01
2019-03-10T14:22:02.225Z,4.02
2019-03-10T14:24:36.220Z,4.18
2019-03-10T14:27:12.982Z,4.38
2019-03-10T14:29:49.445Z,4.57
2019-03-10T14:32:23.042Z,4.56
2019-03-10T14:34:57.226Z,4.50
2019-03-10T14:37:33.524Z,4.27
2019-03-10T14:40:11.242Z,4.23
2019-03-10T14:42:46.663Z,4.18
2019-03-10T14:45:22.245Z,4.33
2019-03-10T14:47:56.954Z,4.24
2019-03-10T14:50:30.680Z,4.14
2019-03-10T14:53:06.179Z,4.16
2019-03-10T14:55:40.351Z,4.22
2019-03-10T14:58:18.834Z,4.14
2019-03-10T15:00:57.492Z,4.24
2019-03-10T15:03:31.348Z,4.17
2019-03-10T15:06:04.991Z,4.36
2019-03-10T15:08:38.946Z,4.38
2019-03-10T15:11:13.705Z,4.35
2019-03-10T15:13:48.713Z,4.37
2019-03-10T15:16:24.380Z,4.33
2019-03-10T15:18:58.180Z,4.19
2019-03-10T15:21:32.068Z,4.01
2019-03-10T15:24:09.581Z,3.83
2019-03-10T15:26:46.101Z,3.78
2019-03-10T15:29:21.705Z,3.75
2019-03-10T15:31:57.671Z,3.67
2019-03-10T15:34:35.260Z,3.66
2019-03-10T15:37:11.859Z,3.66
2019-03-10T15:39:47.175Z,3.57
2019-03-10T15:42:21.601Z,3.50
2019-03-10T15:44:55.859Z,3.44
2019-03-10T15:47:32.894Z,3.44
2019-03-10T15:50:11.065Z,3.36
2019-03-10T15:52:44.915Z,3.41
2019-03-10T15:55:19.370Z,3.42
2019-03-10T15:57:53.234Z,3.37
2019-03-10T16:00:28.424Z,3.29
2019-03-10T16:03:02.454Z,3.30
2019-03-10T16:05:37.447Z,3.19
2019-03-10T16:08:12.404Z,3.17
2019-03-10T16:10:46.262Z,3.16
2019-03-10T16:13:24.893Z,3.14
2019-03-10T16:15:59.826Z,3.01
2019-03-10T16:18:33.743Z,2.94
2019-03-10T16:21:07.922Z,2.91
2019-03-10T16:23:41.808Z,2.80
2019-03-10T16:26:16.385Z,2.82
2019-03-10T16:28:51.327Z,2.84
2019-03-10T16:31:26.255Z,2.76
2019-03-10T16:34:01.807Z,2.74
2019-03-10T16:36:38.000Z,2.67
2019-03-10T16:39:12.908Z,2.73
2019-03-10T16:41:49.469Z,2.70
2019-03-10T16:44:23.701Z,2.79
2019-03-10T16:46:58.357Z,2.62
2019-03-10T16:49:34.137Z,2.54
2019-03-10T16:52:08.488Z,2.47
2019-03-10T16:54:44.151Z,2.30
2019-03-10T16:57:18.585Z,2.21
2019-03-10T16:59:52.436Z,2.18
2019-03-10T17:02:27.485Z,2.15
2019-03-10T17:05:02.950Z,2.07
2019-03-10T17:07:36.553Z,2.02
2019-03-10T17:10:15.379Z,1.92
2019-03-10T17:12:50.219Z,1.83
2019-03-10T17:15:24.833Z,1.73
2019-03-10T17:17:58.545Z,1.71
2019-03-10T17:20:32.501Z,1.58
2019-03-10T17:23:06.210Z,1.47
2019-03-10T17:25:40.434Z,1.56
2019-03-10T17:28:14.333Z,1.64
2019-03-10T17:30:50.136Z,1.57
2019-03-10T17:33:25.112Z,1.72
2019-03-10T17:35:59.757Z,1.64
2019-03-10T17:38:33.753Z,1.62
2019-03-10T17:41:09.531Z,1.62
2019-03-10T17:43:43.457Z,1.57
2019-03-10T17:46:18.625Z,1.63
2019-03-10T17:48:52.639Z,1.47
2019-03-10T17:51:26.457Z,1.50
2019-03-10T17:54:00.190Z,1.39
2019-03-10T17:56:35.911Z,1.30
2019-03-10T17:59:10.485Z,1.25
2019-03-10T18:01:46.482Z,1.21
2019-03-10T18:04:21.451Z,1.20
2019-03-10T18:06:55.522Z,1.06
2019-03-10T18:09:31.056Z,0.90
2019-03-10T18:12:05.342Z,0.94
2019-03-10T18:14:42.278Z,1.00
2019-03-10T18:17:19.478Z,1.09
2019-03-10T18:19:54.549Z,1.11
2019-03-10T18:22:28.409Z,1.03
2019-03-10T18:25:02.262Z,1.01
2019-03-10T18:27:36.619Z,0.86
2019-03-10T18:30:16.574Z,0.92
2019-03-10T18:32:51.606Z,0.97
2019-03-10T18:35:25.386Z,0.93
2019-03-10T18:38:03.776Z,0.89
2019-03-10T18:40:37.948Z,0.98
2019-03-10T18:43:11.689Z,1.10
2019-03-10T18:45:50.694Z,1.19
2019-03-10T18:48:26.676Z,1.03
2019-03-10T18:51:00.696Z,1.01
2019-03-10T18:53:36.966Z,1.13
2019-03-10T18:56:11.430Z,1.22
2019-03-10T18:58:45.112Z,1.23
2019-03-10T19:01:22.342Z,1.23
2019-03-10T19:03:56.545Z,1.26
2019-03-10T19:06:31.898Z,1.25
2019-03-10T19:09:07.722Z,1.11
2019-03-10T19:11:43.209Z,1.28
2019-03-10T19:14:17.365Z,1.25
2019-03-10T19:16:51.118Z,1.42
2019-03-10T19:19:32.071Z,1.53
2019-03-10T19:22:06.279Z,1.25
2019-03-10T19:24:42.927Z,1.42
2019-03-10T19:27:29.749Z,1.37
2019-03-10T19:29:57.648Z,1.51
2019-03-10T19:32:32.898Z,1.44
2019-03-10T19:35:11.759Z,1.49
2019-03-10T19:37:48.266Z,1.58
2019-03-10T19:40:23.450Z,1.49
2019-03-10T19:42:57.550Z,1.62
2019-03-10T19:45:32.322Z,1.49
2019-03-10T19:48:06.202Z,1.58
2019-03-10T19:50:40.055Z,1.44
2019-03-10T19:53:16.020Z,1.34
2019-03-10T19:55:50.793Z,1.48
2019-03-10T19:58:26.675Z,1.55
2019-03-10T20:01:03.622Z,1.44
2019-03-10T20:03:38.253Z,1.45
2019-03-10T20:06:12.039Z,1.45
2019-03-10T20:08:48.795Z,1.48
2019-03-10T20:11:22.996Z,1.57
2019-03-10T20:13:57.520Z,1.50
2019-03-10T20:16:32.634Z,1.55
2019-03-10T20:19:08.237Z,1.60
2019-03-10T20:21:45.283Z,1.55
2019-03-10T20:24:19.211Z,1.57
2019-03-10T20:26:52.880Z,1.68
2019-03-10T20:29:28.248Z,1.64
2019-03-10T20:32:13.232Z,1.68
2019-03-10T20:34:37.299Z,1.72
2019-03-10T20:37:11.112Z,1.66
2019-03-10T20:39:48.415Z,1.74
2019-03-10T20:42:24.001Z,1.69
2019-03-10T20:44:57.959Z,1.72
2019-03-10T20:47:32.013Z,1.83
2019-03-10T20:50:06.220Z,1.75
2019-03-10T20:52:40.275Z,1.78
2019-03-10T20:55:17.027Z,1.75
2019-03-10T20:57:51.058Z,1.73
2019-03-10T21:00:25.090Z,1.79
2019-03-10T21:02:58.944Z,1.77
2019-03-10T21:05:32.721Z,1.82
2019-03-10T21:08:06.454Z,1.72
2019-03-10T21:10:41.168Z,1.68
2019-03-10T21:13:15.517Z,1.77
2019-03-10T21:15:49.806Z,1.68
2019-03-10T21:18:23.842Z,1.77
2019-03-10T21:21:00.715Z,1.76
2019-03-10T21:23:34.668Z,1.75
2019-03-10T21:26:08.526Z,1.78
2019-03-10T21:28:42.359Z,1.88
2019-03-10T21:31:17.157Z,1.82
2019-03-10T21:33:51.024Z,1.92
2019-03-10T21:36:24.961Z,1.83
2019-03-10T21:38:59.320Z,1.82
2019-03-10T21:41:33.427Z,1.84
2019-03-10T21:44:07.645Z,1.88
2019-03-10T21:46:41.848Z,1.81
2019-03-10T21:49:15.868Z,1.76
2019-03-10T21:51:49.632Z,1.80
2019-03-10T21:54:23.663Z,1.85
2019-03-10T21:56:57.699Z,1.93
2019-03-10T21:59:31.532Z,1.74
2019-03-10T22:02:05.916Z,1.91
2019-03-10T22:04:39.845Z,1.98
2019-03-10T22:07:13.483Z,1.90
2019-03-10T22:09:47.194Z,1.93
2019-03-10T22:12:21.061Z,1.98
2019-03-10T22:14:55.797Z,1.95
2019-03-10T22:17:29.724Z,2.10
2019-03-10T22:20:04.745Z,1.99
2019-03-10T22:22:48.236Z,2.09
2019-03-10T22:25:14.320Z,2.16
2019-03-10T22:27:48.472Z,2.07
2019-03-10T22:30:24.096Z,2.17
2019-03-10T22:32:59.103Z,2.12
2019-03-10T22:35:32.802Z,2.08
2019-03-10T22:38:06.720Z,2.10
2019-03-10T22:40:41.553Z,2.11
2019-03-10T22:43:15.255Z,2.20
2019-03-10T22:45:48.909Z,2.11
2019-03-10T22:48:23.072Z,2.15
2019-03-10T22:50:56.743Z,2.20
2019-03-10T22:53:32.484Z,2.11
2019-03-10T22:56:07.332Z,2.12
2019-03-10T22:58:41.324Z,2.07
2019-03-10T23:01:15.182Z,1.99
2019-03-10T23:03:50.409Z,2.09
2019-03-10T23:06:24.371Z,2.11
2019-03-10T23:08:58.249Z,1.98
2019-03-10T23:11:32.313Z,2.01
2019-03-10T23:14:08.827Z,1.87
2019-03-10T23:16:42.538Z,1.88
2019-03-10T23:19:16.702Z,1.82
2019-03-10T23:21:50.661Z,1.89
2019-03-10T23:24:26.180Z,1.91
2019-03-10T23:27:02.888Z,1.65
2019-03-10T23:29:36.690Z,1.56
2019-03-10T23:32:10.453Z,1.60
2019-03-10T23:34:45.302Z,1.55
2019-03-10T23:37:20.090Z,1.60
2019-03-10T23:39:54.481Z,1.52
2019-03-10T23:42:29.833Z,1.56
2019-03-10T23:45:03.734Z,1.56
2019-03-10T23:47:38.467Z,1.69
2019-03-10T23:50:12.822Z,1.58
2019-03-10T23:52:46.827Z,1.67
2019-03-10T23:55:21.820Z,1.67
2019-03-10T23:57:56.561Z,1.82
